sensor_id;sensor_type;location;lat;lon;timestamp;P1;durP1;ratioP1;P2;durP2;ratioP2
11496;SDS011;5805;51.542;7.230;2023-12-04T00:01:12;7.80;;;5.60;;
11496;SDS011;5805;51.542;7.230;2023-12-04T00:03:38;7.87;;;5.63;;
11496;SDS011;5805;51.542;7.230;2023-12-04T00:06:05;7.33;;;5.43;;
11496;SDS011;5805;51.542;7.230;2023-12-04T00:08:32;8.80;;;6.85;;
11496;SDS011;5805;51.542;7.230;2023-12-04T00:10:58;8.00;;;6.13;;
11496;SDS011;5805;51.542;7.230;2023-12-04T00:13:24;8.83;;;6.30;;
11496;SDS011;5805;51.542;7.230;2023-12-04T00:15:51;8.23;;;5.90;;
11496;SDS011;5805;51.542;7.230;2023-12-04T00:18:17;8.20;;;5.63;;
11496;SDS011;5805;51.542;7.230;2023-12-04T00:20:43;8.30;;;5.87;;
11496;SDS011;5805;51.542;7.230;2023-12-04T00:23:08;8.20;;;6.27;;
11496;SDS011;5805;51.542;7.230;2023-12-04T00:25:34;6.77;;;5.33;;
11496;SDS011;5805;51.542;7.230;2023-12-04T00:28:00;7.80;;;5.40;;
11496;SDS011;5805;51.542;7.230;2023-12-04T00:30:25;7.87;;;6.10;;
11496;SDS011;5805;51.542;7.230;2023-12-04T00:32:52;9.80;;;5.87;;
11496;SDS011;5805;51.542;7.230;2023-12-04T00:35:18;7.90;;;5.90;;
11496;SDS011;5805;51.542;7.230;2023-12-04T00:37:44;9.50;;;5.67;;
11496;SDS011;5805;51.542;7.230;2023-12-04T00:40:10;6.77;;;5.30;;
11496;SDS011;5805;51.542;7.230;2023-12-04T00:42:36;6.80;;;4.87;;
11496;SDS011;5805;51.542;7.230;2023-12-04T00:45:02;8.20;;;6.00;;
11496;SDS011;5805;51.542;7.230;2023-12-04T00:47:28;8.53;;;5.63;;
11496;SDS011;5805;51.542;7.230;2023-12-04T00:49:56;6.73;;;5.30;;
11496;SDS011;5805;51.542;7.230;2023-12-04T00:52:22;7.07;;;5.33;;
11496;SDS011;5805;51.542;7.230;2023-12-04T00:54:48;7.87;;;5.93;;
11496;SDS011;5805;51.542;7.230;2023-12-04T00:57:13;7.77;;;5.60;;
11496;SDS011;5805;51.542;7.230;2023-12-04T00:59:39;7.50;;;5.20;;
11496;SDS011;5805;51.542;7.230;2023-12-04T01:02:05;8.13;;;5.40;;
11496;SDS011;5805;51.542;7.230;2023-12-04T01:04:32;7.07;;;4.93;;
11496;SDS011;5805;51.542;7.230;2023-12-04T01:06:59;7.70;;;5.20;;
11496;SDS011;5805;51.542;7.230;2023-12-04T01:09:25;6.93;;;5.30;;
11496;SDS011;5805;51.542;7.230;2023-12-04T01:11:51;7.23;;;4.97;;
11496;SDS011;5805;51.542;7.230;2023-12-04T01:14:18;6.03;;;4.30;;
11496;SDS011;5805;51.542;7.230;2023-12-04T01:16:44;6.27;;;4.77;;
11496;SDS011;5805;51.542;7.230;2023-12-04T01:19:10;6.53;;;5.03;;
11496;SDS011;5805;51.542;7.230;2023-12-04T01:21:35;5.67;;;4.47;;
11496;SDS011;5805;51.542;7.230;2023-12-04T01:24:03;5.87;;;4.53;;
11496;SDS011;5805;51.542;7.230;2023-12-04T01:26:28;7.80;;;5.17;;
11496;SDS011;5805;51.542;7.230;2023-12-04T01:28:54;6.60;;;4.70;;
11496;SDS011;5805;51.542;7.230;2023-12-04T01:31:20;6.33;;;4.27;;
11496;SDS011;5805;51.542;7.230;2023-12-04T01:33:46;6.30;;;5.03;;
11496;SDS011;5805;51.542;7.230;2023-12-04T01:36:11;5.50;;;4.23;;
11496;SDS011;5805;51.542;7.230;2023-12-04T01:38:37;6.63;;;4.37;;
11496;SDS011;5805;51.542;7.230;2023-12-04T01:41:06;5.73;;;4.20;;
11496;SDS011;5805;51.542;7.230;2023-12-04T01:43:32;5.20;;;4.30;;
11496;SDS011;5805;51.542;7.230;2023-12-04T01:45:57;5.47;;;4.13;;
11496;SDS011;5805;51.542;7.230;2023-12-04T01:48:26;5.80;;;4.00;;
11496;SDS011;5805;51.542;7.230;2023-12-04T01:50:53;5.63;;;4.23;;
11496;SDS011;5805;51.542;7.230;2023-12-04T01:53:19;5.50;;;4.13;;
11496;SDS011;5805;51.542;7.230;2023-12-04T01:55:44;7.03;;;3.93;;
11496;SDS011;5805;51.542;7.230;2023-12-04T01:58:12;5.83;;;4.30;;
11496;SDS011;5805;51.542;7.230;2023-12-04T02:00:38;6.20;;;3.87;;
11496;SDS011;5805;51.542;7.230;2023-12-04T02:03:04;5.43;;;4.07;;
11496;SDS011;5805;51.542;7.230;2023-12-04T02:05:30;5.67;;;4.30;;
11496;SDS011;5805;51.542;7.230;2023-12-04T02:07:56;5.50;;;4.33;;
11496;SDS011;5805;51.542;7.230;2023-12-04T02:10:22;5.57;;;4.10;;
11496;SDS011;5805;51.542;7.230;2023-12-04T02:12:48;5.30;;;4.20;;
11496;SDS011;5805;51.542;7.230;2023-12-04T02:15:16;5.37;;;4.23;;
11496;SDS011;5805;51.542;7.230;2023-12-04T02:17:42;6.07;;;3.87;;
11496;SDS011;5805;51.542;7.230;2023-12-04T02:20:09;4.40;;;3.53;;
11496;SDS011;5805;51.542;7.230;2023-12-04T02:22:35;5.00;;;3.87;;
11496;SDS011;5805;51.542;7.230;2023-12-04T02:25:02;6.50;;;4.73;;
11496;SDS011;5805;51.542;7.230;2023-12-04T02:27:28;6.43;;;4.20;;
11496;SDS011;5805;51.542;7.230;2023-12-04T02:29:59;5.70;;;4.00;;
11496;SDS011;5805;51.542;7.230;2023-12-04T02:32:26;5.37;;;4.13;;
11496;SDS011;5805;51.542;7.230;2023-12-04T02:34:54;4.83;;;3.83;;
11496;SDS011;5805;51.542;7.230;2023-12-04T02:37:21;4.90;;;3.70;;
11496;SDS011;5805;51.542;7.230;2023-12-04T02:39:48;4.87;;;3.47;;
11496;SDS011;5805;51.542;7.230;2023-12-04T02:42:20;4.80;;;3.70;;
11496;SDS011;5805;51.542;7.230;2023-12-04T02:44:47;5.03;;;3.77;;
11496;SDS011;5805;51.542;7.230;2023-12-04T02:47:12;5.33;;;3.80;;
11496;SDS011;5805;51.542;7.230;2023-12-04T02:49:39;4.47;;;3.20;;
11496;SDS011;5805;51.542;7.230;2023-12-04T02:52:04;5.57;;;3.60;;
11496;SDS011;5805;51.542;7.230;2023-12-04T02:54:30;4.13;;;3.67;;
11496;SDS011;5805;51.542;7.230;2023-12-04T02:56:56;5.20;;;3.63;;
11496;SDS011;5805;51.542;7.230;2023-12-04T02:59:24;4.43;;;3.60;;
11496;SDS011;5805;51.542;7.230;2023-12-04T03:01:49;5.03;;;3.20;;
11496;SDS011;5805;51.542;7.230;2023-12-04T03:04:15;5.27;;;4.00;;
11496;SDS011;5805;51.542;7.230;2023-12-04T03:06:41;6.43;;;3.73;;
11496;SDS011;5805;51.542;7.230;2023-12-04T03:09:07;4.80;;;3.53;;
11496;SDS011;5805;51.542;7.230;2023-12-04T03:11:32;4.17;;;3.57;;
11496;SDS011;5805;51.542;7.230;2023-12-04T03:13:59;5.07;;;3.43;;
11496;SDS011;5805;51.542;7.230;2023-12-04T03:16:26;4.67;;;3.30;;
11496;SDS011;5805;51.542;7.230;2023-12-04T03:18:52;4.60;;;3.53;;
11496;SDS011;5805;51.542;7.230;2023-12-04T03:21:18;5.47;;;3.97;;
11496;SDS011;5805;51.542;7.230;2023-12-04T03:23:44;6.33;;;3.93;;
11496;SDS011;5805;51.542;7.230;2023-12-04T03:26:09;4.10;;;3.23;;
11496;SDS011;5805;51.542;7.230;2023-12-04T03:28:35;5.10;;;3.47;;
11496;SDS011;5805;51.542;7.230;2023-12-04T03:31:01;4.57;;;3.43;;
11496;SDS011;5805;51.542;7.230;2023-12-04T03:33:28;3.20;;;2.90;;
11496;SDS011;5805;51.542;7.230;2023-12-04T03:35:54;4.37;;;3.33;;
11496;SDS011;5805;51.542;7.230;2023-12-04T03:38:22;4.07;;;3.13;;
11496;SDS011;5805;51.542;7.230;2023-12-04T03:40:47;4.40;;;3.23;;
11496;SDS011;5805;51.542;7.230;2023-12-04T03:43:14;5.00;;;3.33;;
11496;SDS011;5805;51.542;7.230;2023-12-04T03:45:40;5.50;;;3.20;;
11496;SDS011;5805;51.542;7.230;2023-12-04T03:48:05;3.70;;;2.70;;
11496;SDS011;5805;51.542;7.230;2023-12-04T03:50:33;3.63;;;2.80;;
11496;SDS011;5805;51.542;7.230;2023-12-04T03:52:59;3.83;;;2.90;;
11496;SDS011;5805;51.542;7.230;2023-12-04T03:55:25;3.20;;;2.83;;
11496;SDS011;5805;51.542;7.230;2023-12-04T03:57:51;3.53;;;2.90;;
11496;SDS011;5805;51.542;7.230;2023-12-04T04:00:17;4.87;;;2.60;;
11496;SDS011;5805;51.542;7.230;2023-12-04T04:02:43;3.70;;;2.70;;
11496;SDS011;5805;51.542;7.230;2023-12-04T04:05:09;3.87;;;2.90;;
11496;SDS011;5805;51.542;7.230;2023-12-04T04:07:38;3.87;;;3.03;;
11496;SDS011;5805;51.542;7.230;2023-12-04T04:10:05;5.00;;;2.97;;
11496;SDS011;5805;51.542;7.230;2023-12-04T04:12:31;3.43;;;2.60;;
11496;SDS011;5805;51.542;7.230;2023-12-04T04:14:57;3.60;;;2.80;;
11496;SDS011;5805;51.542;7.230;2023-12-04T04:17:23;3.30;;;2.70;;
11496;SDS011;5805;51.542;7.230;2023-12-04T04:19:50;3.67;;;2.67;;
11496;SDS011;5805;51.542;7.230;2023-12-04T04:22:16;2.90;;;2.57;;
11496;SDS011;5805;51.542;7.230;2023-12-04T04:24:43;2.73;;;2.40;;
11496;SDS011;5805;51.542;7.230;2023-12-04T04:27:09;2.93;;;2.33;;
11496;SDS011;5805;51.542;7.230;2023-12-04T04:29:34;4.25;;;2.47;;
11496;SDS011;5805;51.542;7.230;2023-12-04T04:32:00;2.90;;;2.23;;
11496;SDS011;5805;51.542;7.230;2023-12-04T04:34:26;4.40;;;3.07;;
11496;SDS011;5805;51.542;7.230;2023-12-04T04:36:51;2.90;;;2.50;;
11496;SDS011;5805;51.542;7.230;2023-12-04T04:39:17;3.80;;;2.90;;
11496;SDS011;5805;51.542;7.230;2023-12-04T04:41:45;4.43;;;2.53;;
11496;SDS011;5805;51.542;7.230;2023-12-04T04:44:10;3.67;;;2.87;;
11496;SDS011;5805;51.542;7.230;2023-12-04T04:46:36;3.23;;;2.60;;
11496;SDS011;5805;51.542;7.230;2023-12-04T04:49:02;3.00;;;2.50;;
11496;SDS011;5805;51.542;7.230;2023-12-04T04:51:27;3.30;;;2.50;;
11496;SDS011;5805;51.542;7.230;2023-12-04T04:53:53;2.57;;;2.37;;
11496;SDS011;5805;51.542;7.230;2023-12-04T04:56:19;2.90;;;2.50;;
11496;SDS011;5805;51.542;7.230;2023-12-04T04:58:46;3.70;;;2.40;;
11496;SDS011;5805;51.542;7.230;2023-12-04T05:01:12;3.83;;;2.67;;
11496;SDS011;5805;51.542;7.230;2023-12-04T05:03:39;4.07;;;2.40;;
11496;SDS011;5805;51.542;7.230;2023-12-04T05:06:05;3.10;;;2.50;;
11496;SDS011;5805;51.542;7.230;2023-12-04T05:08:31;4.03;;;2.60;;
11496;SDS011;5805;51.542;7.230;2023-12-04T05:10:57;2.80;;;2.10;;
11496;SDS011;5805;51.542;7.230;2023-12-04T05:13:23;3.37;;;2.33;;
11496;SDS011;5805;51.542;7.230;2023-12-04T05:15:50;4.10;;;2.50;;
11496;SDS011;5805;51.542;7.230;2023-12-04T05:18:16;3.30;;;2.60;;
11496;SDS011;5805;51.542;7.230;2023-12-04T05:20:41;2.83;;;2.03;;
11496;SDS011;5805;51.542;7.230;2023-12-04T05:23:07;2.83;;;2.23;;
11496;SDS011;5805;51.542;7.230;2023-12-04T05:25:33;3.47;;;2.60;;
11496;SDS011;5805;51.542;7.230;2023-12-04T05:27:59;3.27;;;2.30;;
11496;SDS011;5805;51.542;7.230;2023-12-04T05:30:24;3.53;;;2.30;;
11496;SDS011;5805;51.542;7.230;2023-12-04T05:32:52;4.17;;;2.43;;
11496;SDS011;5805;51.542;7.230;2023-12-04T05:35:17;2.30;;;2.10;;
11496;SDS011;5805;51.542;7.230;2023-12-04T05:37:43;2.63;;;2.40;;
11496;SDS011;5805;51.542;7.230;2023-12-04T05:40:09;2.97;;;2.53;;
11496;SDS011;5805;51.542;7.230;2023-12-04T05:42:35;3.03;;;2.70;;
11496;SDS011;5805;51.542;7.230;2023-12-04T05:45:01;3.30;;;2.30;;
11496;SDS011;5805;51.542;7.230;2023-12-04T05:47:26;3.60;;;2.87;;
11496;SDS011;5805;51.542;7.230;2023-12-04T05:49:54;2.73;;;2.17;;
11496;SDS011;5805;51.542;7.230;2023-12-04T05:52:19;3.57;;;2.60;;
11496;SDS011;5805;51.542;7.230;2023-12-04T05:54:45;2.80;;;2.33;;
11496;SDS011;5805;51.542;7.230;2023-12-04T05:57:11;3.70;;;2.63;;
11496;SDS011;5805;51.542;7.230;2023-12-04T05:59:37;3.70;;;3.00;;
11496;SDS011;5805;51.542;7.230;2023-12-04T06:02:03;3.00;;;2.43;;
11496;SDS011;5805;51.542;7.230;2023-12-04T06:04:28;4.00;;;2.73;;
11496;SDS011;5805;51.542;7.230;2023-12-04T06:06:55;3.60;;;2.50;;
11496;SDS011;5805;51.542;7.230;2023-12-04T06:09:21;3.97;;;2.53;;
11496;SDS011;5805;51.542;7.230;2023-12-04T06:11:47;3.47;;;2.70;;
11496;SDS011;5805;51.542;7.230;2023-12-04T06:14:12;2.80;;;2.40;;
11496;SDS011;5805;51.542;7.230;2023-12-04T06:16:38;4.83;;;2.77;;
11496;SDS011;5805;51.542;7.230;2023-12-04T06:19:06;3.38;;;2.40;;
11496;SDS011;5805;51.542;7.230;2023-12-04T06:21:31;3.23;;;2.60;;
11496;SDS011;5805;51.542;7.230;2023-12-04T06:23:59;3.80;;;2.87;;
11496;SDS011;5805;51.542;7.230;2023-12-04T06:26:26;2.65;;;2.28;;
11496;SDS011;5805;51.542;7.230;2023-12-04T06:28:52;3.03;;;2.53;;
11496;SDS011;5805;51.542;7.230;2023-12-04T06:31:18;3.50;;;3.00;;
11496;SDS011;5805;51.542;7.230;2023-12-04T06:33:45;3.00;;;2.70;;
11496;SDS011;5805;51.542;7.230;2023-12-04T06:36:11;3.80;;;2.50;;
11496;SDS011;5805;51.542;7.230;2023-12-04T06:38:39;3.30;;;2.90;;
11496;SDS011;5805;51.542;7.230;2023-12-04T06:41:08;3.60;;;2.73;;
11496;SDS011;5805;51.542;7.230;2023-12-04T06:43:35;3.50;;;2.60;;
11496;SDS011;5805;51.542;7.230;2023-12-04T06:46:01;3.90;;;2.67;;
11496;SDS011;5805;51.542;7.230;2023-12-04T06:48:29;4.37;;;2.67;;
11496;SDS011;5805;51.542;7.230;2023-12-04T06:50:55;3.60;;;2.80;;
11496;SDS011;5805;51.542;7.230;2023-12-04T06:53:22;2.87;;;2.37;;
11496;SDS011;5805;51.542;7.230;2023-12-04T06:55:47;3.73;;;2.60;;
11496;SDS011;5805;51.542;7.230;2023-12-04T06:58:15;3.20;;;2.80;;
11496;SDS011;5805;51.542;7.230;2023-12-04T07:00:40;3.47;;;2.50;;
11496;SDS011;5805;51.542;7.230;2023-12-04T07:03:06;3.30;;;2.60;;
11496;SDS011;5805;51.542;7.230;2023-12-04T07:05:32;4.33;;;2.77;;
11496;SDS011;5805;51.542;7.230;2023-12-04T07:07:57;3.43;;;2.40;;
11496;SDS011;5805;51.542;7.230;2023-12-04T07:10:23;4.07;;;2.60;;
11496;SDS011;5805;51.542;7.230;2023-12-04T07:12:49;3.00;;;2.20;;
11496;SDS011;5805;51.542;7.230;2023-12-04T07:15:16;3.67;;;2.73;;
11496;SDS011;5805;51.542;7.230;2023-12-04T07:17:42;4.03;;;2.63;;
11496;SDS011;5805;51.542;7.230;2023-12-04T07:20:08;3.07;;;2.43;;
11496;SDS011;5805;51.542;7.230;2023-12-04T07:22:34;2.93;;;2.33;;
11496;SDS011;5805;51.542;7.230;2023-12-04T07:25:00;3.70;;;2.70;;
11496;SDS011;5805;51.542;7.230;2023-12-04T07:27:26;3.10;;;2.50;;
11496;SDS011;5805;51.542;7.230;2023-12-04T07:29:51;2.70;;;2.40;;
11496;SDS011;5805;51.542;7.230;2023-12-04T07:32:20;3.33;;;2.50;;
11496;SDS011;5805;51.542;7.230;2023-12-04T07:34:46;4.03;;;3.00;;
11496;SDS011;5805;51.542;7.230;2023-12-04T07:37:11;3.00;;;2.70;;
11496;SDS011;5805;51.542;7.230;2023-12-04T07:39:37;3.77;;;2.53;;
11496;SDS011;5805;51.542;7.230;2023-12-04T07:42:03;3.05;;;2.33;;
11496;SDS011;5805;51.542;7.230;2023-12-04T07:44:29;3.45;;;2.72;;
11496;SDS011;5805;51.542;7.230;2023-12-04T07:46:55;3.30;;;2.70;;
11496;SDS011;5805;51.542;7.230;2023-12-04T07:49:22;2.50;;;2.17;;
11496;SDS011;5805;51.542;7.230;2023-12-04T07:51:48;3.07;;;2.60;;
11496;SDS011;5805;51.542;7.230;2023-12-04T07:54:13;3.43;;;2.40;;
11496;SDS011;5805;51.542;7.230;2023-12-04T07:56:39;3.00;;;2.30;;
11496;SDS011;5805;51.542;7.230;2023-12-04T07:59:05;4.40;;;2.83;;
11496;SDS011;5805;51.542;7.230;2023-12-04T08:01:30;2.60;;;2.40;;
11496;SDS011;5805;51.542;7.230;2023-12-04T08:03:56;3.53;;;2.47;;
11496;SDS011;5805;51.542;7.230;2023-12-04T08:06:23;3.85;;;2.55;;
11496;SDS011;5805;51.542;7.230;2023-12-04T08:08:49;3.63;;;2.35;;
11496;SDS011;5805;51.542;7.230;2023-12-04T08:11:14;2.97;;;2.30;;
11496;SDS011;5805;51.542;7.230;2023-12-04T08:13:40;4.00;;;2.97;;
11496;SDS011;5805;51.542;7.230;2023-12-04T08:16:12;2.77;;;2.20;;
11496;SDS011;5805;51.542;7.230;2023-12-04T08:18:38;2.57;;;2.37;;
11496;SDS011;5805;51.542;7.230;2023-12-04T08:21:04;4.90;;;2.15;;
11496;SDS011;5805;51.542;7.230;2023-12-04T08:23:31;3.15;;;2.30;;
11496;SDS011;5805;51.542;7.230;2023-12-04T08:25:57;3.05;;;2.45;;
11496;SDS011;5805;51.542;7.230;2023-12-04T08:28:23;2.58;;;2.35;;
11496;SDS011;5805;51.542;7.230;2023-12-04T08:30:48;2.95;;;2.33;;
11496;SDS011;5805;51.542;7.230;2023-12-04T08:33:14;5.68;;;2.88;;
11496;SDS011;5805;51.542;7.230;2023-12-04T08:35:40;3.30;;;2.70;;
11496;SDS011;5805;51.542;7.230;2023-12-04T08:38:06;4.75;;;2.75;;
11496;SDS011;5805;51.542;7.230;2023-12-04T08:40:33;3.67;;;2.67;;
11496;SDS011;5805;51.542;7.230;2023-12-04T08:42:59;2.83;;;2.22;;
11496;SDS011;5805;51.542;7.230;2023-12-04T08:45:24;4.00;;;2.70;;
11496;SDS011;5805;51.542;7.230;2023-12-04T08:47:50;3.05;;;2.38;;
11496;SDS011;5805;51.542;7.230;2023-12-04T08:50:16;3.87;;;3.47;;
11496;SDS011;5805;51.542;7.230;2023-12-04T08:52:42;3.47;;;2.50;;
11496;SDS011;5805;51.542;7.230;2023-12-04T08:55:08;3.15;;;2.40;;
11496;SDS011;5805;51.542;7.230;2023-12-04T08:57:36;3.38;;;1.95;;
11496;SDS011;5805;51.542;7.230;2023-12-04T09:00:02;2.83;;;2.50;;
11496;SDS011;5805;51.542;7.230;2023-12-04T09:02:29;3.15;;;2.53;;
11496;SDS011;5805;51.542;7.230;2023-12-04T09:04:54;2.80;;;2.50;;
11496;SDS011;5805;51.542;7.230;2023-12-04T09:07:20;3.35;;;1.85;;
11496;SDS011;5805;51.542;7.230;2023-12-04T09:09:46;3.72;;;2.33;;
11496;SDS011;5805;51.542;7.230;2023-12-04T09:12:11;3.03;;;2.30;;
11496;SDS011;5805;51.542;7.230;2023-12-04T09:14:38;3.67;;;2.22;;
11496;SDS011;5805;51.542;7.230;2023-12-04T09:17:04;3.05;;;2.45;;
11496;SDS011;5805;51.542;7.230;2023-12-04T09:19:30;2.88;;;1.95;;
11496;SDS011;5805;51.542;7.230;2023-12-04T09:21:56;2.22;;;1.90;;
11496;SDS011;5805;51.542;7.230;2023-12-04T09:24:21;4.80;;;2.58;;
11496;SDS011;5805;51.542;7.230;2023-12-04T09:26:47;2.33;;;2.13;;
11496;SDS011;5805;51.542;7.230;2023-12-04T09:29:13;2.78;;;2.17;;
11496;SDS011;5805;51.542;7.230;2023-12-04T09:31:40;2.53;;;2.00;;
11496;SDS011;5805;51.542;7.230;2023-12-04T09:34:06;2.60;;;2.22;;
11496;SDS011;5805;51.542;7.230;2023-12-04T09:36:31;3.15;;;2.13;;
11496;SDS011;5805;51.542;7.230;2023-12-04T09:38:57;3.72;;;2.30;;
11496;SDS011;5805;51.542;7.230;2023-12-04T09:41:23;5.53;;;2.47;;
11496;SDS011;5805;51.542;7.230;2023-12-04T09:43:48;3.78;;;2.15;;
11496;SDS011;5805;51.542;7.230;2023-12-04T09:46:15;3.20;;;2.13;;
11496;SDS011;5805;51.542;7.230;2023-12-04T09:48:43;2.35;;;1.88;;
11496;SDS011;5805;51.542;7.230;2023-12-04T09:51:09;2.45;;;2.10;;
11496;SDS011;5805;51.542;7.230;2023-12-04T09:53:35;2.75;;;2.08;;
11496;SDS011;5805;51.542;7.230;2023-12-04T09:56:02;2.40;;;1.92;;
11496;SDS011;5805;51.542;7.230;2023-12-04T09:58:29;3.30;;;2.15;;
11496;SDS011;5805;51.542;7.230;2023-12-04T10:00:56;2.22;;;1.90;;
11496;SDS011;5805;51.542;7.230;2023-12-04T10:03:21;2.38;;;2.00;;
11496;SDS011;5805;51.542;7.230;2023-12-04T10:05:49;2.70;;;2.25;;
11496;SDS011;5805;51.542;7.230;2023-12-04T10:08:15;2.58;;;1.95;;
11496;SDS011;5805;51.542;7.230;2023-12-04T10:10:41;2.55;;;1.95;;
11496;SDS011;5805;51.542;7.230;2023-12-04T10:13:06;2.72;;;2.13;;
11496;SDS011;5805;51.542;7.230;2023-12-04T10:15:32;3.40;;;2.38;;
11496;SDS011;5805;51.542;7.230;2023-12-04T10:17:58;5.88;;;2.35;;
11496;SDS011;5805;51.542;7.230;2023-12-04T10:20:26;2.75;;;2.00;;
11496;SDS011;5805;51.542;7.230;2023-12-04T10:22:53;3.58;;;2.00;;
11496;SDS011;5805;51.542;7.230;2023-12-04T10:25:20;1.98;;;1.70;;
11496;SDS011;5805;51.542;7.230;2023-12-04T10:27:46;4.38;;;2.50;;
11496;SDS011;5805;51.542;7.230;2023-12-04T10:30:21;2.03;;;1.65;;
11496;SDS011;5805;51.542;7.230;2023-12-04T10:32:53;2.75;;;1.80;;
11496;SDS011;5805;51.542;7.230;2023-12-04T10:35:20;2.35;;;2.00;;
11496;SDS011;5805;51.542;7.230;2023-12-04T10:37:45;2.38;;;2.03;;
11496;SDS011;5805;51.542;7.230;2023-12-04T10:40:12;2.35;;;1.77;;
11496;SDS011;5805;51.542;7.230;2023-12-04T10:42:48;2.50;;;1.80;;
11496;SDS011;5805;51.542;7.230;2023-12-04T10:45:13;2.72;;;2.08;;
11496;SDS011;5805;51.542;7.230;2023-12-04T10:47:39;1.98;;;1.77;;
11496;SDS011;5805;51.542;7.230;2023-12-04T10:50:05;4.15;;;2.65;;
11496;SDS011;5805;51.542;7.230;2023-12-04T10:52:31;3.08;;;2.15;;
11496;SDS011;5805;51.542;7.230;2023-12-04T10:54:58;2.45;;;1.85;;
11496;SDS011;5805;51.542;7.230;2023-12-04T10:57:27;2.72;;;2.33;;
11496;SDS011;5805;51.542;7.230;2023-12-04T10:59:57;3.30;;;2.60;;
11496;SDS011;5805;51.542;7.230;2023-12-04T11:02:26;6.00;;;2.60;;
11496;SDS011;5805;51.542;7.230;2023-12-04T11:04:54;3.20;;;2.40;;
11496;SDS011;5805;51.542;7.230;2023-12-04T11:07:25;3.03;;;2.42;;
11496;SDS011;5805;51.542;7.230;2023-12-04T11:09:51;3.13;;;2.53;;
11496;SDS011;5805;51.542;7.230;2023-12-04T11:12:18;3.40;;;2.60;;
11496;SDS011;5805;51.542;7.230;2023-12-04T11:14:52;3.72;;;2.33;;
11496;SDS011;5805;51.542;7.230;2023-12-04T11:17:24;3.78;;;2.50;;
11496;SDS011;5805;51.542;7.230;2023-12-04T11:19:53;3.58;;;2.53;;
11496;SDS011;5805;51.542;7.230;2023-12-04T11:22:21;6.65;;;3.70;;
11496;SDS011;5805;51.542;7.230;2023-12-04T11:24:49;4.10;;;2.92;;
11496;SDS011;5805;51.542;7.230;2023-12-04T11:27:16;4.10;;;2.75;;
11496;SDS011;5805;51.542;7.230;2023-12-04T11:29:43;3.80;;;2.85;;
11496;SDS011;5805;51.542;7.230;2023-12-04T11:32:14;4.20;;;3.00;;
11496;SDS011;5805;51.542;7.230;2023-12-04T11:34:46;4.95;;;2.88;;
11496;SDS011;5805;51.542;7.230;2023-12-04T11:37:13;3.55;;;2.80;;
11496;SDS011;5805;51.542;7.230;2023-12-04T11:39:38;4.05;;;3.22;;
11496;SDS011;5805;51.542;7.230;2023-12-04T11:42:05;5.18;;;2.88;;
11496;SDS011;5805;51.542;7.230;2023-12-04T11:44:32;4.32;;;3.10;;
11496;SDS011;5805;51.542;7.230;2023-12-04T11:47:02;3.75;;;3.00;;
11496;SDS011;5805;51.542;7.230;2023-12-04T11:49:30;4.47;;;3.30;;
11496;SDS011;5805;51.542;7.230;2023-12-04T11:51:56;5.65;;;3.63;;
11496;SDS011;5805;51.542;7.230;2023-12-04T11:54:22;4.05;;;3.30;;
11496;SDS011;5805;51.542;7.230;2023-12-04T11:56:58;4.55;;;3.20;;
11496;SDS011;5805;51.542;7.230;2023-12-04T11:59:25;5.78;;;3.25;;
11496;SDS011;5805;51.542;7.230;2023-12-04T12:01:51;4.18;;;3.10;;
11496;SDS011;5805;51.542;7.230;2023-12-04T12:04:19;4.97;;;3.47;;
11496;SDS011;5805;51.542;7.230;2023-12-04T12:06:47;5.68;;;3.72;;
11496;SDS011;5805;51.542;7.230;2023-12-04T12:09:12;3.90;;;2.97;;
11496;SDS011;5805;51.542;7.230;2023-12-04T12:11:39;5.90;;;4.13;;
11496;SDS011;5805;51.542;7.230;2023-12-04T12:14:05;5.10;;;4.10;;
11496;SDS011;5805;51.542;7.230;2023-12-04T12:16:31;4.60;;;3.42;;
11496;SDS011;5805;51.542;7.230;2023-12-04T12:18:57;4.07;;;3.58;;
11496;SDS011;5805;51.542;7.230;2023-12-04T12:21:22;5.32;;;3.60;;
11496;SDS011;5805;51.542;7.230;2023-12-04T12:23:50;3.95;;;3.05;;
11496;SDS011;5805;51.542;7.230;2023-12-04T12:26:15;4.05;;;3.28;;
11496;SDS011;5805;51.542;7.230;2023-12-04T12:28:41;5.50;;;4.00;;
11496;SDS011;5805;51.542;7.230;2023-12-04T12:31:07;5.63;;;3.53;;
11496;SDS011;5805;51.542;7.230;2023-12-04T12:33:33;4.07;;;3.17;;
11496;SDS011;5805;51.542;7.230;2023-12-04T12:35:58;5.10;;;3.30;;
11496;SDS011;5805;51.542;7.230;2023-12-04T12:38:25;4.80;;;3.65;;
11496;SDS011;5805;51.542;7.230;2023-12-04T12:40:52;4.55;;;3.78;;
11496;SDS011;5805;51.542;7.230;2023-12-04T12:43:19;5.28;;;3.47;;
11496;SDS011;5805;51.542;7.230;2023-12-04T12:45:46;5.43;;;3.70;;
11496;SDS011;5805;51.542;7.230;2023-12-04T12:48:12;5.18;;;3.80;;
11496;SDS011;5805;51.542;7.230;2023-12-04T12:50:38;4.72;;;3.63;;
11496;SDS011;5805;51.542;7.230;2023-12-04T12:53:03;4.28;;;3.03;;
11496;SDS011;5805;51.542;7.230;2023-12-04T12:55:29;4.30;;;3.42;;
11496;SDS011;5805;51.542;7.230;2023-12-04T12:57:56;4.72;;;3.47;;
11496;SDS011;5805;51.542;7.230;2023-12-04T13:00:22;6.55;;;3.80;;
11496;SDS011;5805;51.542;7.230;2023-12-04T13:02:48;5.40;;;4.20;;
11496;SDS011;5805;51.542;7.230;2023-12-04T13:05:14;4.15;;;3.55;;
11496;SDS011;5805;51.542;7.230;2023-12-04T13:07:39;5.57;;;3.50;;
11496;SDS011;5805;51.542;7.230;2023-12-04T13:10:05;5.95;;;3.67;;
11496;SDS011;5805;51.542;7.230;2023-12-04T13:12:32;4.78;;;3.40;;
11496;SDS011;5805;51.542;7.230;2023-12-04T13:14:59;4.00;;;3.50;;
11496;SDS011;5805;51.542;7.230;2023-12-04T13:17:24;6.80;;;3.83;;
11496;SDS011;5805;51.542;7.230;2023-12-04T13:19:50;4.97;;;3.08;;
11496;SDS011;5805;51.542;7.230;2023-12-04T13:22:16;3.90;;;3.30;;
11496;SDS011;5805;51.542;7.230;2023-12-04T13:24:42;3.25;;;2.95;;
11496;SDS011;5805;51.542;7.230;2023-12-04T13:27:07;3.65;;;3.30;;
11496;SDS011;5805;51.542;7.230;2023-12-04T13:29:33;3.47;;;2.95;;
11496;SDS011;5805;51.542;7.230;2023-12-04T13:32:00;4.38;;;3.33;;
11496;SDS011;5805;51.542;7.230;2023-12-04T13:34:26;4.82;;;3.33;;
11496;SDS011;5805;51.542;7.230;2023-12-04T13:36:52;4.00;;;2.90;;
11496;SDS011;5805;51.542;7.230;2023-12-04T13:39:18;5.63;;;3.05;;
11496;SDS011;5805;51.542;7.230;2023-12-04T13:41:44;3.92;;;3.15;;
11496;SDS011;5805;51.542;7.230;2023-12-04T13:44:10;3.70;;;3.00;;
11496;SDS011;5805;51.542;7.230;2023-12-04T13:46:36;5.15;;;3.33;;
11496;SDS011;5805;51.542;7.230;2023-12-04T13:49:03;3.80;;;3.00;;
11496;SDS011;5805;51.542;7.230;2023-12-04T13:51:29;4.90;;;3.00;;
11496;SDS011;5805;51.542;7.230;2023-12-04T13:53:55;3.10;;;2.80;;
11496;SDS011;5805;51.542;7.230;2023-12-04T13:56:21;3.75;;;3.15;;
11496;SDS011;5805;51.542;7.230;2023-12-04T13:58:47;3.75;;;2.72;;
11496;SDS011;5805;51.542;7.230;2023-12-04T14:01:12;5.47;;;3.53;;
11496;SDS011;5805;51.542;7.230;2023-12-04T14:03:38;4.40;;;3.72;;
11496;SDS011;5805;51.542;7.230;2023-12-04T14:06:06;4.47;;;3.40;;
11496;SDS011;5805;51.542;7.230;2023-12-04T14:08:32;4.97;;;4.10;;
11496;SDS011;5805;51.542;7.230;2023-12-04T14:10:58;5.20;;;3.47;;
11496;SDS011;5805;51.542;7.230;2023-12-04T14:13:24;6.55;;;3.38;;
11496;SDS011;5805;51.542;7.230;2023-12-04T14:15:49;4.20;;;3.30;;
11496;SDS011;5805;51.542;7.230;2023-12-04T14:18:15;3.92;;;3.25;;
11496;SDS011;5805;51.542;7.230;2023-12-04T14:20:41;4.13;;;3.33;;
11496;SDS011;5805;51.542;7.230;2023-12-04T14:23:08;4.05;;;3.15;;
11496;SDS011;5805;51.542;7.230;2023-12-04T14:25:34;4.28;;;2.88;;
11496;SDS011;5805;51.542;7.230;2023-12-04T14:27:59;4.43;;;3.10;;
11496;SDS011;5805;51.542;7.230;2023-12-04T14:30:25;3.80;;;2.83;;
11496;SDS011;5805;51.542;7.230;2023-12-04T14:32:51;3.65;;;2.72;;
11496;SDS011;5805;51.542;7.230;2023-12-04T14:35:17;4.50;;;2.72;;
11496;SDS011;5805;51.542;7.230;2023-12-04T14:37:43;8.13;;;2.60;;
11496;SDS011;5805;51.542;7.230;2023-12-04T14:40:11;2.90;;;2.60;;
11496;SDS011;5805;51.542;7.230;2023-12-04T14:42:37;3.80;;;2.38;;
11496;SDS011;5805;51.542;7.230;2023-12-04T14:45:03;3.42;;;2.72;;
11496;SDS011;5805;51.542;7.230;2023-12-04T14:47:30;2.65;;;2.10;;
11496;SDS011;5805;51.542;7.230;2023-12-04T14:49:55;3.30;;;2.80;;
11496;SDS011;5805;51.542;7.230;2023-12-04T14:52:21;3.88;;;2.67;;
11496;SDS011;5805;51.542;7.230;2023-12-04T14:54:47;2.75;;;2.30;;